Latest Coastal Weather Observations for Cape Naturaliste

IDW60701

Issued at 10:13 pm WST Friday 3 July 2020 (issued every 10 minutes, with the page automatically refreshed every 10 minutes)

About coastal observations | Map of coastal stations | Coastal observations for WA | Marine services | Other Formats
Station Details ID: 009519 Name: CAPE NATURALISTE Lat: -33.54 Lon: 115.02 Height: 109.0 m
Data from the previous 72 hours. | See also: Recent months at Cape Naturaliste
Date/Time
WST
Wind Sea
Height
m
Swell Vis
km
Cloud Weather Temp
°C
Press
hPa
Rain since
9am
mm
Dir  Spd
kts
Gust
kts
Height
m
Period
s
Dir
03/10:00pm NE 20 26 - - - - - - - 15.1 1026.3 0.0
03/09:30pm NE 19 25 - - - - - - - 15.2 1026.4 0.0
03/09:00pm NE 21 26 - - - - - - - 15.4 1026.5 0.0
03/08:30pm NE 20 25 - - - - - - - 15.6 1026.6 0.0
03/08:00pm ENE 18 23 - - - - - - - 15.6 1026.7 0.0
03/07:30pm ENE 18 23 - - - - - - - 15.8 1026.8 0.0
03/07:00pm ENE 17 22 - - - - - - - 15.5 1026.9 0.0
03/06:30pm ENE 12 15 - - - - - - - 15.1 1027.1 0.0
03/06:00pm ENE 12 15 - - - - - - - 15.0 1026.8 0.0
03/05:30pm ENE 13 16 - - - - - - - 15.3 1026.7 0.0
03/05:00pm ENE 13 17 - - - - - - - 15.6 1026.6 0.0
03/04:30pm ENE 13 17 - - - - - - - 15.9 1026.7 0.0
03/04:00pm NE 13 16 - - - - - - - 16.4 1027.0 0.0
03/03:30pm ENE 12 16 - - - - - - - 16.6 1027.2 0.0
03/03:00pm ENE 13 15 - - - - - - - 16.8 1027.3 0.0
03/02:30pm ENE 13 16 - - - - - - - 16.7 1027.3 0.0
03/02:00pm ENE 14 18 - - - - - - - 16.8 1027.5 0.0
03/01:30pm ENE 14 17 - - - - - - - 16.9 1028.0 0.0
03/01:00pm NE 12 16 - - - - - - - 17.2 1028.9 0.0
03/12:30pm NE 14 19 - - - - - - - 17.1 1029.1 0.0
03/12:00pm NE 16 21 - - - - - - - 16.6 1029.5 0.0
03/11:30am NE 17 21 - - - - - - - 16.3 1029.8 0.0
03/11:00am NE 17 21 - - - - - - - 16.1 1030.2 0.0
03/10:30am NE 15 19 - - - - - - - 15.9 1030.6 0.0
03/10:00am NE 14 18 - - - - - - - 15.3 1030.6 0.0
03/09:30am NE 15 21 - - - - - - - 14.7 1030.4 0.0
03/09:00am ENE 16 22 - - - - - - - 13.9 1030.3 0.0
03/08:30am ENE 17 22 - - - - - - - 13.3 1030.1 0.0
03/08:00am ENE 17 21 - - - - - - - 13.0 1030.0 0.0
03/07:30am ENE 16 21 - - - - - - - 12.4 1029.8 0.0
03/07:00am ENE 16 19 - - - - - - - 12.2 1029.8 0.0
03/06:30am ENE 14 19 - - - - - - - 11.7 1029.6 0.0
03/06:00am E 13 19 - - - - - - - 11.3 1029.1 0.0
03/05:30am E 12 14 - - - - - - - 10.8 1028.6 0.0
03/05:00am E 11 13 - - - - - - - 10.8 1028.5 0.0
03/04:30am E 11 12 - - - - - - - 10.8 1028.7 0.0
03/04:00am E 8 11 - - - - - - - 11.5 1029.1 0.0
03/03:30am ENE 9 13 - - - - - - - 12.1 1029.2 0.0
03/03:00am ENE 11 16 - - - - - - - 12.6 1029.1 0.0
03/02:30am ENE 12 16 - - - - - - - 12.7 1029.0 0.0
03/02:00am ENE 14 17 - - - - - - - 12.8 1029.0 0.0
03/01:30am ENE 14 16 - - - - - - - 12.6 1029.0 0.0
03/01:00am ENE 12 15 - - - - - - - 12.5 1029.0 0.0
03/12:30am ENE 13 16 - - - - - - - 12.5 1029.1 0.0
03/12:00am E 8 13 - - - - - - - 11.4 1029.4 0.0
 
Date/Time
WST
Wind Sea
Height
m
Swell Vis
km
Cloud Weather Temp
°C
Press
hPa
Rain since
9am
mm
Dir  Spd
kts
Gust
kts
Height
m
Period
s
Dir
02/11:30pm ESE 7 8 - - - - - - - 10.9 1029.6 0.0
02/11:00pm SE 7 8 - - - - - - - 10.5 1029.6 0.0
02/10:30pm SE 7 8 - - - - - - - 10.7 1029.4 0.0
02/10:00pm SE 7 8 - - - - - - - 10.8 1029.5 0.0
02/09:30pm SE 7 8 - - - - - - - 10.9 1029.3 0.0
02/09:00pm SE 7 9 - - - - - - - 11.0 1029.1 0.0
02/08:30pm SE 7 8 - - - - - - - 11.0 1028.8 0.0
02/08:00pm SE 6 7 - - - - - - - 11.2 1028.5 0.0
02/07:30pm ESE 6 7 - - - - - - - 12.0 1028.2 0.0
02/07:00pm S 5 5 - - - - - - - 12.6 1028.1 0.0
02/06:30pm CALM 0 0 - - - - - - - 12.7 1027.9 0.0
02/06:00pm CALM 0 0 - - - - - - - 13.0 1027.5 0.0
02/05:30pm CALM 0 0 - - - - - - - 12.9 1027.3 0.0
02/05:00pm ENE 1 3 - - - - - - - 13.0 1027.0 0.0
02/04:30pm NE 3 4 - - - - - - - 13.6 1026.8 0.0
02/04:00pm NE 2 5 - - - - - - - 14.1 1026.6 0.0
02/03:30pm NE 5 7 - - - - - - - 14.5 1026.4 0.0
02/03:00pm NE 6 8 - - - - - - - 14.4 1026.3 0.0
02/02:30pm ENE 7 9 - - - - - - - 14.6 1026.3 0.0
02/02:00pm NE 6 9 - - - - - - - 16.1 1026.4 0.0
02/01:30pm ENE 6 9 - - - - - - - 15.4 1026.5 0.0
02/01:00pm ENE 7 9 - - - - - - - 14.7 1026.6 0.0
02/12:30pm NE 7 9 - - - - - - - 16.5 1026.8 0.0
02/12:00pm NE 8 11 - - - - - - - 16.3 1027.0 0.0
02/11:30am E 8 11 - - - - - - - 15.6 1027.4 0.0
02/11:00am E 8 11 - - - - - - - 15.5 1027.7 0.0
02/10:30am E 8 10 - - - - - - - 14.8 1027.7 0.0
02/10:00am E 8 10 - - - - - - - 14.4 1027.6 0.0
02/09:30am E 7 9 - - - - - - - 13.5 1027.5 0.0
02/09:00am E 6 8 - - - - - - - 12.5 1027.2 -
02/08:30am ESE 6 7 - - - - - - - 11.6 1026.9 -
02/08:00am SE 6 7 - - - - - - - 10.8 1026.5 -
02/07:30am ESE 5 6 - - - - - - - 10.0 1026.2 -
02/07:00am ESE 5 6 - - - - - - - 9.6 1025.8 -
02/06:30am SE 6 7 - - - - - - - 10.0 1025.5 -
02/06:00am ESE 6 7 - - - - - - - 9.6 1025.3 -
02/05:30am SE 6 7 - - - - - - - 10.2 1025.0 -
02/05:00am ESE 5 6 - - - - - - - 10.0 1024.8 -
02/04:30am ESE 5 6 - - - - - - - 10.0 1024.7 -
02/04:00am SE 7 8 - - - - - - - 9.6 1024.8 -
02/03:30am SE 8 8 - - - - - - - 8.9 1024.8 -
02/03:00am SE 7 8 - - - - - - - 8.8 1024.7 -
02/02:30am SE 7 8 - - - - - - - 9.3 1024.7 -
02/02:00am SE 7 9 - - - - - - - 10.0 1024.7 -
02/01:30am SSE 6 7 - - - - - - - 10.1 1024.6 -
02/01:00am SE 5 6 - - - - - - - 9.5 1024.6 -
02/12:30am SE 5 6 - - - - - - - 10.1 1024.7 -
02/12:00am ESE 5 6 - - - - - - - 9.8 1024.6 -
 
Date/Time
WST
Wind Sea
Height
m
Swell Vis
km
Cloud Weather Temp
°C
Press
hPa
Rain since
9am
mm
Dir  Spd
kts
Gust
kts
Height
m
Period
s
Dir
01/11:30pm SE 5 7 - - - - - - - 10.5 1024.9 0.2
01/11:00pm SE 7 8 - - - - - - - 10.4 1024.8 0.2
01/10:30pm SSE 6 8 - - - - - - - 10.8 1024.7 0.2
01/10:00pm SE 7 9 - - - - - - - 10.9 1024.6 0.2
01/09:30pm SSE 10 13 - - - - - - - 11.1 1024.5 0.2
01/09:00pm SSE 8 10 - - - - - - - 10.7 1024.3 0.2
01/08:30pm SSE 8 11 - - - - - - - 10.1 1024.1 0.2
01/08:00pm SSE 9 11 - - - - - - - 9.5 1024.0 0.2
01/07:30pm SE 7 9 - - - - - - - 9.9 1023.7 0.2
01/07:00pm S 9 15 - - - - - - - 11.6 1023.6 0.2
01/06:30pm SE 7 8 - - - - - - - 11.7 1023.2 0.2
01/06:00pm SSE 7 9 - - - - - - - 12.0 1023.0 0.2
01/05:30pm S 10 16 - - - - - - - 12.5 1022.8 0.2
01/05:00pm SSW 12 15 - - - - - - - 12.9 1022.5 0.2
01/04:30pm S 8 14 - - - - - - - 13.1 1022.2 0.2
01/04:00pm SSW 13 17 - - - - - - - 13.1 1021.8 0.2
01/03:30pm SSE 9 13 - - - - - - - 13.1 1021.6 0.2
01/03:00pm SSW 11 16 - - - - - - - 13.7 1021.4 0.2
01/02:30pm S 13 17 - - - - - - - 13.4 1021.3 0.2
01/02:00pm SSW 12 17 - - - - - - - 13.2 1021.3 0.2
01/01:30pm SSW 11 20 - - - - - - - 13.0 1021.4 0.2
01/01:00pm SSW 13 18 - - - - - - - 14.3 1021.2 0.2
01/12:30pm SSW 16 24 - - - - - - - 14.0 1021.3 0.2
01/12:00pm SSW 10 15 - - - - - - - 14.4 1021.6 0.2
01/11:30am SW 11 19 - - - - - - - 13.9 1021.7 0.2
01/11:00am SSW 16 22 - - - - - - - 14.9 1021.7 0.2
01/10:44am SSW 15 22 - - - - - - - 13.1 1021.7 0.0
01/10:30am SSW 10 17 - - - - - - - 13.4 1021.8 0.0
01/10:00am SW 13 17 - - - - - - - 12.9 1021.6 0.0
01/09:49am SSW 16 26 - - - - - - - 12.8 1021.5 0.0
01/09:30am SSW 14 21 - - - - - - - 13.0 1021.3 0.0
01/09:00am SSW 16 22 - - - - - - - 13.0 1020.8 1.0
01/08:30am SSW 17 25 - - - - - - - 12.9 1020.1 1.0
01/08:02am SSW 17 28 - - - - - - - 13.0 1019.6 1.0
01/08:00am SSW 17 23 - - - - - - - 13.1 1019.6 1.0
01/07:30am SSW 16 25 - - - - - - - 12.8 1019.3 1.0
01/07:09am SSW 16 26 - - - - - - - 12.7 1019.1 1.0
01/07:00am SSW 17 26 - - - - - - - 13.1 1018.8 1.0
01/06:30am SW 16 22 - - - - - - - 12.7 1018.7 1.0
01/06:00am SW 18 24 - - - - - - - 13.1 1018.2 1.0
01/05:30am SW 19 28 - - - - - - - 13.1 1018.0 1.0
01/05:00am SW 19 29 - - - - - - - 12.9 1017.6 1.0
01/04:56am SW 16 26 - - - - - - - 13.2 1017.6 1.0
01/04:30am SSW 18 26 - - - - - - - 13.1 1017.4 1.0
01/04:00am SSW 17 27 - - - - - - - 12.6 1017.3 1.0
01/03:55am SSW 17 27 - - - - - - - 12.3 1017.3 1.0
01/03:30am SW 19 26 - - - - - - - 12.6 1017.4 1.0
01/03:00am SW 19 26 - - - - - - - 12.8 1017.1 1.0
01/02:30am SW 19 25 - - - - - - - 13.2 1016.8 1.0
01/02:00am SW 20 28 - - - - - - - 13.2 1016.4 1.0
01/01:33am SW 18 28 - - - - - - - 13.0 1016.1 1.0
01/01:30am SSW 17 25 - - - - - - - 12.8 1016.3 1.0
01/01:26am SSW 18 28 - - - - - - - 12.7 1016.3 1.0
01/01:00am SW 22 31 - - - - - - - 13.4 1016.1 1.0
01/12:55am SW 21 31 - - - - - - - 13.3 1016.1 1.0
01/12:30am SW 24 31 - - - - - - - 13.2 1016.2 1.0
01/12:00am SW 23 28 - - - - - - - 13.3 1016.2 1.0
 
Date/Time
WST
Wind Sea
Height
m
Swell Vis
km
Cloud Weather Temp
°C
Press
hPa
Rain since
9am
mm
Dir  Spd
kts
Gust
kts
Height
m
Period
s
Dir
30/11:30pm SW 25 33 - - - - - - - 13.2 1016.0 1.0
30/11:00pm SW 22 32 - - - - - - - 13.4 1015.8 1.0
30/10:56pm SW 21 32 - - - - - - - 13.4 1015.7 1.0
30/10:30pm SW 21 29 - - - - - - - 13.5 1015.6 1.0

Other formats

Comma delimited format used in spreadsheet applications
http://www.bom.gov.au/fwo/IDW60701/IDW60701.94600.axf

JavaScript Object Notation format (JSON) in row-major order
http://www.bom.gov.au/fwo/IDW60701/IDW60701.94600.json

Data quality

Most of these data are generated automatically and are frequently updated. Quality checks on data are not normally performed. It is possible for incorrect values to appear. Refer to information at About Latest Weather Observations and please check the disclaimer before using these data.